Time;durP1;ratioP1;P1;durP2;ratioP2;P2;SDS_P1;SDS_P2;PMS_P1;PMS_P2;Temp;Humidity;BMP_temperature;BMP_pressure;BME280_temperature;BME280_humidity;BME280_pressure;Samples;Min_cycle;Max_cycle;Signal;HPM_P1;HPM_P2
2023/08/03 00:01:43;;;;;;;;;;;;;;;16.76;54.18;100170.28;5095819;28;1169;-53
2023/08/03 00:04:09;;;;;;;;;;;;;;;16.71;53.96;100173.88;5095654;28;854;-52
2023/08/03 00:06:35;;;;;;;;;;;;;;;16.71;53.79;100164.81;5095898;28;1181;-52
2023/08/03 00:09:00;;;;;;;;;;;;;;;16.62;54.17;100170.13;5095836;28;1101;-53
2023/08/03 00:11:26;;;;;;;;;;;;;;;16.63;53.79;100176.44;5077665;28;1091;-51
2023/08/03 00:13:51;;;;;;;;;;;;;;;16.63;53.91;100160.75;5095540;28;1905;-52
2023/08/03 00:16:17;;;;;;;;;;;;;;;16.62;53.74;100166.53;5076953;28;2216;-52
2023/08/03 00:18:43;;;;;;;;;;;;;;;16.57;54.03;100168.22;5095617;28;1100;-54
2023/08/03 00:21:08;;;;;;;;;;;;;;;16.56;53.90;100168.53;5095651;28;1006;-52
2023/08/03 00:23:34;;;;;;;;;;;;;;;16.55;53.61;100167.72;5096116;28;1029;-52
2023/08/03 00:25:59;;;;;;;;;;;;;;;16.50;53.90;100167.75;5095757;28;1100;-52
2023/08/03 00:28:25;;;;;;;;;;;;;;;16.49;53.91;100166.09;5095133;28;845;-52
2023/08/03 00:30:50;;;;;;;;;;;;;;;16.45;53.87;100170.53;5095705;28;1014;-52
2023/08/03 00:33:16;;;;;;;;;;;;;;;16.48;53.82;100169.13;5095812;28;1894;-51
2023/08/03 00:35:41;;;;;;;;;;;;;;;16.45;53.62;100173.28;5095445;28;1130;-53
2023/08/03 00:38:07;;;;;;;;;;;;;;;16.45;53.59;100178.75;5095773;28;1165;-52
2023/08/03 00:40:33;;;;;;;;;;;;;;;16.99;54.70;100171.44;5076754;28;1206;-55
2023/08/03 00:42:58;;;;;;;;;;;;;;;17.55;55.41;100169.13;5077614;28;1098;-52
2023/08/03 00:45:24;;;;;;;;;;;;;;;17.05;55.65;100164.75;5095298;28;2407;-53
2023/08/03 00:47:51;;;;;;;;;;;;;;;16.91;55.23;100164.66;5077466;28;1201;-55
2023/08/03 00:50:17;;;;;;;;;;;;;;;16.84;54.86;100166.06;5095024;28;1177;-56
2023/08/03 00:52:42;;;;;;;;;;;;;;;16.85;54.84;100164.97;5079566;28;882;-55
2023/08/03 00:55:08;;;;;;;;;;;;;;;16.76;54.49;100164.78;5099252;28;1905;-55
2023/08/03 00:57:33;;;;;;;;;;;;;;;16.69;54.40;100158.78;5098776;28;1014;-55
2023/08/03 00:59:59;;;;;;;;;;;;;;;16.72;54.08;100159.03;5098643;28;1006;-52
2023/08/03 01:02:25;;;;;;;;;;;;;;;16.64;54.02;100151.44;5099034;28;1222;-52
2023/08/03 01:04:50;;;;;;;;;;;;;;;16.65;53.90;100152.25;5098369;28;887;-53
2023/08/03 01:07:16;;;;;;;;;;;;;;;16.56;54.11;100149.31;5098794;28;1177;-53
2023/08/03 01:09:42;;;;;;;;;;;;;;;16.64;53.45;100147.88;5080720;28;1188;-55
2023/08/03 01:12:07;;;;;;;;;;;;;;;16.54;53.63;100141.38;5098858;28;1101;-52
2023/08/03 01:14:33;;;;;;;;;;;;;;;16.56;53.74;100152.06;5098846;28;1910;-55
2023/08/03 01:16:58;;;;;;;;;;;;;;;16.56;53.67;100143.81;5080405;28;2562;-54
2023/08/03 01:19:24;;;;;;;;;;;;;;;16.50;53.80;100142.25;5098775;28;1098;-54
2023/08/03 01:21:50;;;;;;;;;;;;;;;16.52;53.38;100149.09;5080442;28;1792;-53
2023/08/03 01:24:15;;;;;;;;;;;;;;;16.46;53.62;100144.72;5097987;28;1002;-55
2023/08/03 01:26:42;;;;;;;;;;;;;;;16.47;53.58;100145.56;5098858;28;1011;-55
2023/08/03 01:29:07;;;;;;;;;;;;;;;17.61;55.15;100146.78;5079940;28;911;-55
2023/08/03 01:31:34;;;;;;;;;;;;;;;17.26;55.43;100142.56;5098618;28;1022;-54
2023/08/03 01:33:59;;;;;;;;;;;;;;;17.01;55.11;100138.19;5098286;28;1889;-56
2023/08/03 01:36:25;;;;;;;;;;;;;;;16.91;54.81;100156.41;5098604;28;1110;-55
2023/08/03 01:38:54;;;;;;;;;;;;;;;16.81;54.64;100161.97;5098258;28;975;-54
2023/08/03 01:41:22;;;;;;;;;;;;;;;16.80;54.24;100159.50;5097522;28;950;-54
2023/08/03 01:43:49;;;;;;;;;;;;;;;16.71;54.32;100168.38;5098896;28;1081;-54
2023/08/03 01:46:15;;;;;;;;;;;;;;;16.73;53.98;100159.84;5079768;28;2645;-53
2023/08/03 01:48:40;;;;;;;;;;;;;;;16.69;53.82;100164.28;5079903;28;1166;-55
2023/08/03 01:51:06;;;;;;;;;;;;;;;16.68;53.69;100171.72;5098308;28;1082;-54
2023/08/03 01:53:31;;;;;;;;;;;;;;;16.65;53.55;100169.53;5097798;28;1925;-55
2023/08/03 01:55:57;;;;;;;;;;;;;;;16.59;53.86;100177.00;5097710;28;1065;-55
2023/08/03 01:58:23;;;;;;;;;;;;;;;16.54;53.85;100179.78;5097784;28;1200;-55
2023/08/03 02:00:48;;;;;;;;;;;;;;;16.58;53.48;100188.28;5079574;28;1162;-55
2023/08/03 02:03:14;;;;;;;;;;;;;;;16.60;53.36;100194.28;5078579;28;1114;-55
2023/08/03 02:05:39;;;;;;;;;;;;;;;16.52;53.70;100193.00;5097927;28;1031;-55
2023/08/03 02:08:05;;;;;;;;;;;;;;;17.45;54.86;100198.38;5079559;28;1110;-55
2023/08/03 02:10:30;;;;;;;;;;;;;;;17.37;55.44;100201.78;5097575;28;1137;-55
2023/08/03 02:12:56;;;;;;;;;;;;;;;17.06;55.08;100196.63;5097658;28;1976;-55
2023/08/03 02:15:22;;;;;;;;;;;;;;;16.94;54.91;100201.69;5097654;28;2558;-55
2023/08/03 02:17:47;;;;;;;;;;;;;;;16.89;54.64;100197.06;5096833;28;899;-55
2023/08/03 02:20:13;;;;;;;;;;;;;;;16.83;54.43;100197.38;5079303;28;1244;-55
2023/08/03 02:22:39;;;;;;;;;;;;;;;16.75;54.47;100202.38;5079414;28;1424;-55
2023/08/03 02:25:05;;;;;;;;;;;;;;;16.73;54.08;100193.63;5079427;28;1414;-55
2023/08/03 02:27:31;;;;;;;;;;;;;;;16.72;54.06;100208.47;5079139;28;1334;-55
2023/08/03 02:29:56;;;;;;;;;;;;;;;16.68;53.90;100206.59;5097168;28;996;-54
2023/08/03 02:32:24;;;;;;;;;;;;;;;16.68;53.86;100199.16;5079467;28;1290;-54
2023/08/03 02:34:50;;;;;;;;;;;;;;;16.66;53.72;100204.13;5078696;28;1898;-55
2023/08/03 02:37:16;;;;;;;;;;;;;;;16.62;53.66;100202.22;5062347;28;1366;-55
2023/08/03 02:39:43;;;;;;;;;;;;;;;16.65;53.66;100204.41;5079047;28;1226;-54
2023/08/03 02:42:09;;;;;;;;;;;;;;;16.54;53.59;100206.44;5078137;28;951;-53
2023/08/03 02:44:39;;;;;;;;;;;;;;;16.50;53.68;100200.69;5078389;28;2391;-54
2023/08/03 02:47:07;;;;;;;;;;;;;;;16.48;53.96;100199.31;5073779;28;1187;-54
2023/08/03 02:49:33;;;;;;;;;;;;;;;16.53;53.65;100204.78;5096157;28;1090;-53
2023/08/03 02:52:02;;;;;;;;;;;;;;;16.49;53.55;100211.94;5078342;28;1182;-53
2023/08/03 02:54:38;;;;;;;;;;;;;;;16.47;53.49;100212.25;5078680;28;1926;-52
2023/08/03 02:57:04;;;;;;;;;;;;;;;16.52;53.41;100214.94;5078609;28;1446;-54
2023/08/03 02:59:31;;;;;;;;;;;;;;;16.43;53.41;100222.16;5078779;28;1628;-54
2023/08/03 03:01:57;;;;;;;;;;;;;;;17.26;54.87;100216.75;5078058;28;1159;-53
2023/08/03 03:04:28;;;;;;;;;;;;;;;17.47;55.03;100222.00;5074284;28;1998;-52
2023/08/03 03:06:54;;;;;;;;;;;;;;;17.06;55.18;100223.28;5075788;28;1146;-55
2023/08/03 03:09:19;;;;;;;;;;;;;;;16.91;54.97;100214.09;5078690;28;1149;-55
2023/08/03 03:11:51;;;;;;;;;;;;;;;16.80;54.71;100209.75;5078154;28;1347;-54
2023/08/03 03:14:17;;;;;;;;;;;;;;;16.79;54.52;100229.25;5096322;28;1909;-54
2023/08/03 03:16:43;;;;;;;;;;;;;;;16.75;54.25;100227.09;5077702;28;2323;-55
2023/08/03 03:19:09;;;;;;;;;;;;;;;16.69;54.03;100224.69;5096744;28;1115;-55
2023/08/03 03:21:35;;;;;;;;;;;;;;;16.71;53.95;100234.28;5078167;28;1388;-55
2023/08/03 03:24:01;;;;;;;;;;;;;;;16.62;54.16;100232.44;5096513;28;1144;-56
2023/08/03 03:26:27;;;;;;;;;;;;;;;16.54;54.13;100233.88;5095877;28;1484;-56
2023/08/03 03:28:52;;;;;;;;;;;;;;;16.61;53.59;100231.63;5095743;28;1173;-51
2023/08/03 03:31:26;;;;;;;;;;;;;;;16.63;53.65;100232.13;5078395;28;1256;-52
2023/08/03 03:33:52;;;;;;;;;;;;;;;16.59;53.62;100237.41;5096356;28;1909;-50
2023/08/03 03:36:17;;;;;;;;;;;;;;;16.54;53.88;100242.09;5096363;28;1011;-49
2023/08/03 03:38:43;;;;;;;;;;;;;;;16.54;53.45;100240.19;5077888;28;1154;-48
2023/08/03 03:41:09;;;;;;;;;;;;;;;17.47;54.99;100241.25;5095572;28;1146;-49
2023/08/03 03:43:39;;;;;;;;;;;;;;;17.41;55.13;100233.06;5078109;28;1193;-51
2023/08/03 03:46:05;;;;;;;;;;;;;;;17.12;55.48;100235.84;5089511;28;2322;-49
2023/08/03 03:48:31;;;;;;;;;;;;;;;17.00;54.70;100230.75;5077515;28;1266;-50
2023/08/03 03:51:00;;;;;;;;;;;;;;;16.91;54.84;100243.47;5077740;28;1154;-48
2023/08/03 03:53:26;;;;;;;;;;;;;;;16.86;54.32;100236.06;5095521;28;1905;-47
2023/08/03 03:55:52;;;;;;;;;;;;;;;16.82;55.16;100239.69;5065185;28;1123;-50
2023/08/03 03:58:18;;;;;;;;;;;;;;;16.87;54.48;100242.38;5077607;28;1202;-53
2023/08/03 04:00:44;;;;;;;;;;;;;;;16.77;54.65;100246.88;5085249;28;1083;-51
2023/08/03 04:03:11;;;;;;;;;;;;;;;16.68;54.41;100250.50;5077960;28;1149;-50
2023/08/03 04:05:37;;;;;;;;;;;;;;;16.67;54.35;100237.88;5064920;28;1166;-55
2023/08/03 04:08:03;;;;;;;;;;;;;;;16.71;53.94;100242.50;5064101;28;1155;-52
2023/08/03 04:10:30;;;;;;;;;;;;;;;16.70;53.88;100245.53;5072037;28;1294;-52
2023/08/03 04:12:55;;;;;;;;;;;;;;;16.70;53.93;100248.28;5096142;28;1020;-55
2023/08/03 04:15:22;;;;;;;;;;;;;;;16.60;53.94;100238.22;5077951;28;2378;-55
2023/08/03 04:17:51;;;;;;;;;;;;;;;16.61;53.79;100245.34;5085167;28;1166;-53
2023/08/03 04:20:22;;;;;;;;;;;;;;;16.56;53.89;100248.97;5069571;28;1314;-53
2023/08/03 04:22:47;;;;;;;;;;;;;;;16.57;53.74;100250.56;5076051;28;1071;-54
2023/08/03 04:25:16;;;;;;;;;;;;;;;16.61;53.83;100253.56;5066727;28;1240;-52
2023/08/03 04:27:45;;;;;;;;;;;;;;;16.55;53.86;100251.97;5078961;28;1255;-56
2023/08/03 04:30:14;;;;;;;;;;;;;;;16.53;53.81;100259.69;5070120;28;1130;-55
2023/08/03 04:32:41;;;;;;;;;;;;;;;16.62;53.53;100263.47;5066736;28;1097;-55
2023/08/03 04:35:07;;;;;;;;;;;;;;;16.50;53.81;100268.50;5069170;28;1983;-55
2023/08/03 04:37:34;;;;;;;;;;;;;;;16.51;53.59;100256.38;5066615;28;1106;-55
2023/08/03 04:40:00;;;;;;;;;;;;;;;16.48;53.90;100276.16;5080747;28;1193;-54
2023/08/03 04:42:25;;;;;;;;;;;;;;;16.45;53.64;100274.00;5066857;28;1465;-56
2023/08/03 04:44:51;;;;;;;;;;;;;;;17.21;55.08;100269.03;5088285;28;1808;-54
2023/08/03 04:47:19;;;;;;;;;;;;;;;17.63;55.39;100275.72;5078122;28;1341;-54
2023/08/03 04:49:45;;;;;;;;;;;;;;;17.97;56.94;100274.75;5070598;28;1165;-54
2023/08/03 04:52:11;;;;;;;;;;;;;;;17.31;55.90;100279.09;5064232;28;1086;-55
2023/08/03 04:54:37;;;;;;;;;;;;;;;17.01;53.74;100281.00;5079021;28;1929;-56
2023/08/03 04:57:04;;;;;;;;;;;;;;;16.90;52.19;100277.53;5073994;28;1462;-56
2023/08/03 04:59:34;;;;;;;;;;;;;;;16.84;50.79;100279.47;5060728;28;1363;-55
2023/08/03 05:02:00;;;;;;;;;;;;;;;16.85;50.05;100274.81;5094706;28;1115;-54
2023/08/03 05:04:26;;;;;;;;;;;;;;;17.23;51.44;100286.03;5060979;28;1234;-53
2023/08/03 05:06:52;;;;;;;;;;;;;;;17.57;53.51;100285.09;5074765;28;1108;-58
2023/08/03 05:09:19;;;;;;;;;;;;;;;17.24;52.10;100279.44;5071622;28;1361;-55
2023/08/03 05:11:44;;;;;;;;;;;;;;;17.03;50.70;100285.09;5066853;28;1126;-56
2023/08/03 05:14:10;;;;;;;;;;;;;;;17.08;49.67;100285.06;5098884;28;1894;-56
2023/08/03 05:16:36;;;;;;;;;;;;;;;17.05;49.19;100291.13;5084949;28;1942;-55
2023/08/03 05:19:01;;;;;;;;;;;;;;;17.02;48.45;100293.63;5079999;28;1102;-57
2023/08/03 05:21:28;;;;;;;;;;;;;;;17.34;49.85;100287.56;5085497;28;1138;-56
2023/08/03 05:23:53;;;;;;;;;;;;;;;17.39;50.22;100298.50;5098153;28;1077;-55
2023/08/03 05:26:19;;;;;;;;;;;;;;;17.34;50.05;100290.31;5085010;28;1074;-55
2023/08/03 05:28:45;;;;;;;;;;;;;;;18.39;51.70;100297.84;5098787;28;1011;-55
2023/08/03 05:31:10;;;;;;;;;;;;;;;17.77;51.34;100295.88;5098357;28;1046;-54
2023/08/03 05:33:36;;;;;;;;;;;;;;;17.58;50.15;100306.00;5098177;28;1973;-55
2023/08/03 05:36:02;;;;;;;;;;;;;;;17.48;49.26;100297.88;5093718;28;1035;-55
2023/08/03 05:38:27;;;;;;;;;;;;;;;17.50;48.47;100301.13;5077701;28;1528;-55
2023/08/03 05:40:53;;;;;;;;;;;;;;;17.36;48.00;100306.50;5063835;28;1012;-55
2023/08/03 05:43:18;;;;;;;;;;;;;;;17.35;47.81;100302.09;5090484;28;846;-54
2023/08/03 05:45:45;;;;;;;;;;;;;;;17.33;47.36;100299.66;5066941;28;2033;-55
2023/08/03 05:48:14;;;;;;;;;;;;;;;17.20;47.54;100300.34;5097131;28;1224;-54
2023/08/03 05:50:40;;;;;;;;;;;;;;;17.30;47.10;100299.44;5097758;28;1256;-55
2023/08/03 05:53:06;;;;;;;;;;;;;;;17.32;46.92;100297.19;5094447;28;1906;-54
2023/08/03 05:55:32;;;;;;;;;;;;;;;17.91;48.67;100292.47;5088788;28;944;-52
2023/08/03 05:57:57;;;;;;;;;;;;;;;17.74;49.42;100299.22;5080496;28;1108;-54
2023/08/03 06:00:23;;;;;;;;;;;;;;;17.52;48.93;100293.44;5063925;28;1238;-53
2023/08/03 06:02:49;;;;;;;;;;;;;;;17.54;48.13;100297.50;5073170;28;1292;-55
2023/08/03 06:05:33;;;;;;;;;;;;;;;17.50;47.42;100299.22;5073527;28;1150;-52
2023/08/03 06:07:58;;;;;;;;;;;;;;;17.50;47.20;100296.47;5093717;28;1292;-55
2023/08/03 06:10:24;;;;;;;;;;;;;;;17.38;46.96;100294.09;5089200;28;1073;-55
2023/08/03 06:12:50;;;;;;;;;;;;;;;17.40;46.94;100302.91;5090958;28;1007;-56
2023/08/03 06:15:16;;;;;;;;;;;;;;;17.34;47.05;100295.78;5077725;28;1990;-57
2023/08/03 06:17:42;;;;;;;;;;;;;;;18.11;48.76;100299.63;5090478;28;1123;-56
2023/08/03 06:20:10;;;;;;;;;;;;;;;17.67;48.69;100301.50;5085066;28;1224;-57
2023/08/03 06:22:35;;;;;;;;;;;;;;;17.63;48.20;100311.44;5079423;28;1174;-55
2023/08/03 06:25:01;;;;;;;;;;;;;;;17.62;47.62;100301.56;5096576;28;1272;-56
2023/08/03 06:27:27;;;;;;;;;;;;;;;17.60;47.45;100309.28;5079338;28;1301;-57
2023/08/03 06:29:52;;;;;;;;;;;;;;;17.56;47.11;100303.53;5093872;28;1149;-57
2023/08/03 06:32:23;;;;;;;;;;;;;;;17.47;46.98;100305.28;5073817;28;1301;-56
2023/08/03 06:34:49;;;;;;;;;;;;;;;17.53;46.85;100308.78;5095682;28;1917;-58
2023/08/03 06:37:14;;;;;;;;;;;;;;;17.53;46.73;100304.13;5078002;28;1300;-57
2023/08/03 06:39:40;;;;;;;;;;;;;;;17.52;46.72;100301.69;5097038;28;1432;-56
2023/08/03 06:42:06;;;;;;;;;;;;;;;17.44;46.53;100303.13;5093276;28;1050;-55
2023/08/03 06:44:31;;;;;;;;;;;;;;;17.45;46.43;100302.03;5086586;28;1055;-56
2023/08/03 06:46:57;;;;;;;;;;;;;;;17.38;46.67;100302.34;5086367;28;2121;-57
2023/08/03 06:49:23;;;;;;;;;;;;;;;17.48;46.50;100295.13;5094981;28;1101;-55
2023/08/03 06:51:48;;;;;;;;;;;;;;;17.40;46.38;100300.16;5096907;28;1138;-56
2023/08/03 06:54:14;;;;;;;;;;;;;;;17.49;46.53;100297.56;5093769;28;1975;-52
2023/08/03 06:56:39;;;;;;;;;;;;;;;17.45;46.29;100297.31;5096708;28;1086;-55
2023/08/03 06:59:05;;;;;;;;;;;;;;;17.46;46.33;100298.16;5096655;28;979;-53
2023/08/03 07:01:30;;;;;;;;;;;;;;;17.48;46.26;100292.38;5089935;28;1138;-52
2023/08/03 07:03:56;;;;;;;;;;;;;;;17.41;46.42;100301.75;5096242;28;1002;-57
2023/08/03 07:06:21;;;;;;;;;;;;;;;17.39;46.79;100309.50;5096293;28;995;-51
2023/08/03 07:08:47;;;;;;;;;;;;;;;17.48;46.28;100303.38;5096146;28;1307;-55
2023/08/03 07:11:12;;;;;;;;;;;;;;;17.54;46.26;100297.50;5095858;28;1034;-56
2023/08/03 07:13:38;;;;;;;;;;;;;;;17.45;46.36;100308.31;5096465;28;1918;-55
2023/08/03 07:16:07;;;;;;;;;;;;;;;17.50;46.19;100312.13;5084449;28;1970;-56
2023/08/03 07:18:33;;;;;;;;;;;;;;;17.45;46.38;100302.81;5096029;28;891;-57
2023/08/03 07:21:02;;;;;;;;;;;;;;;17.50;46.47;100307.47;5096523;28;999;-56
2023/08/03 07:23:27;;;;;;;;;;;;;;;17.47;46.59;100309.97;5096104;28;1007;-56
2023/08/03 07:25:53;;;;;;;;;;;;;;;17.49;46.49;100314.06;5095549;28;1054;-58
2023/08/03 07:28:18;;;;;;;;;;;;;;;17.47;46.48;100316.28;5087173;28;979;-56
2023/08/03 07:30:44;;;;;;;;;;;;;;;17.49;46.52;100304.97;5078229;28;1133;-57
2023/08/03 07:33:10;;;;;;;;;;;;;;;17.47;46.44;100320.97;5095375;28;2027;-56
2023/08/03 07:35:38;;;;;;;;;;;;;;;17.45;46.55;100313.81;5076082;28;1292;-57
2023/08/03 07:38:04;;;;;;;;;;;;;;;17.38;46.69;100313.34;5094914;28;1054;-57
2023/08/03 07:40:29;;;;;;;;;;;;;;;17.48;46.28;100317.13;5071330;28;983;-58
2023/08/03 07:42:55;;;;;;;;;;;;;;;17.53;46.25;100311.53;5088476;28;1050;-56
2023/08/03 07:45:21;;;;;;;;;;;;;;;17.48;46.45;100306.13;5090196;28;2005;-58
2023/08/03 07:47:46;;;;;;;;;;;;;;;17.55;46.31;100309.34;5093273;28;1356;-58
2023/08/03 07:50:12;;;;;;;;;;;;;;;17.45;46.42;100313.81;5068822;28;1328;-56
2023/08/03 07:52:39;;;;;;;;;;;;;;;17.52;46.31;100307.19;5076456;28;1050;-58
2023/08/03 07:55:05;;;;;;;;;;;;;;;17.52;46.50;100313.47;5066325;28;1980;-59
2023/08/03 07:57:30;;;;;;;;;;;;;;;17.53;46.28;100306.88;5072057;28;1177;-56
2023/08/03 07:59:56;;;;;;;;;;;;;;;17.53;46.29;100314.28;5075474;28;1158;-58
2023/08/03 08:02:21;;;;;;;;;;;;;;;17.47;46.53;100313.53;5077921;28;1180;-56
2023/08/03 08:04:47;;;;;;;;;;;;;;;17.62;46.19;100312.56;5078871;28;1116;-56
2023/08/03 08:07:13;;;;;;;;;;;;;;;17.54;46.30;100315.94;5078400;28;1149;-55
2023/08/03 08:09:38;;;;;;;;;;;;;;;17.54;46.58;100310.44;5078539;28;1220;-57
2023/08/03 08:12:07;;;;;;;;;;;;;;;17.49;46.48;100314.06;5078791;28;1267;-57
2023/08/03 08:14:33;;;;;;;;;;;;;;;17.56;46.44;100311.78;5078886;28;1909;-57
2023/08/03 08:16:58;;;;;;;;;;;;;;;17.53;46.50;100308.78;5077679;28;2604;-56
2023/08/03 08:19:24;;;;;;;;;;;;;;;17.67;46.09;100315.25;5078838;28;1223;-60
2023/08/03 08:21:49;;;;;;;;;;;;;;;17.62;46.51;100309.81;5079450;28;1133;-56
2023/08/03 08:24:15;;;;;;;;;;;;;;;17.57;46.54;100313.44;5078826;28;1110;-56
2023/08/03 08:26:40;;;;;;;;;;;;;;;17.57;46.35;100310.69;5059427;28;1012;-59
2023/08/03 08:29:06;;;;;;;;;;;;;;;17.63;46.44;100314.19;5072848;28;1062;-57
2023/08/03 08:31:31;;;;;;;;;;;;;;;17.57;46.32;100310.69;5066359;28;868;-57
2023/08/03 08:33:57;;;;;;;;;;;;;;;17.63;46.24;100303.19;5078693;28;1976;-57
2023/08/03 08:36:23;;;;;;;;;;;;;;;17.62;46.64;100304.31;5065717;28;1022;-57
2023/08/03 08:38:48;;;;;;;;;;;;;;;17.60;46.55;100306.53;5065157;28;1034;-57
2023/08/03 08:41:14;;;;;;;;;;;;;;;17.61;46.61;100308.16;5056790;28;1094;-57
2023/08/03 08:43:40;;;;;;;;;;;;;;;17.69;46.36;100313.00;5067743;28;1123;-57
2023/08/03 08:46:06;;;;;;;;;;;;;;;17.69;46.42;100312.22;5065520;28;1938;-57
2023/08/03 08:48:33;;;;;;;;;;;;;;;17.60;46.77;100310.09;5083147;28;1359;-57
2023/08/03 08:50:59;;;;;;;;;;;;;;;17.53;46.85;100300.53;5099559;28;1031;-57
2023/08/03 08:53:24;;;;;;;;;;;;;;;17.63;46.68;100305.94;5099468;28;1906;-57
2023/08/03 08:55:50;;;;;;;;;;;;;;;17.74;46.19;100310.22;5091837;28;1054;-56
2023/08/03 08:58:15;;;;;;;;;;;;;;;17.65;46.65;100311.16;5081153;28;1265;-57
2023/08/03 09:00:42;;;;;;;;;;;;;;;17.68;46.42;100302.31;5099277;28;1030;-57
2023/08/03 09:03:08;;;;;;;;;;;;;;;17.68;46.48;100308.63;5099479;28;1245;-57
2023/08/03 09:05:34;;;;;;;;;;;;;;;17.66;46.57;100308.09;5099161;28;1115;-57
2023/08/03 09:08:00;;;;;;;;;;;;;;;17.64;46.59;100313.06;5099054;28;931;-57
2023/08/03 09:10:26;;;;;;;;;;;;;;;17.74;46.59;100310.22;5098912;28;1268;-54
2023/08/03 09:12:51;;;;;;;;;;;;;;;17.72;46.59;100312.44;5097725;28;1213;-55
2023/08/03 09:15:17;;;;;;;;;;;;;;;17.72;46.65;100312.44;5095309;28;2100;-57
2023/08/03 09:17:44;;;;;;;;;;;;;;;17.74;46.46;100315.72;5098624;28;1324;-57
2023/08/03 09:20:22;;;;;;;;;;;;;;;17.67;46.76;100311.66;5075241;28;1360;-57
2023/08/03 09:22:47;;;;;;;;;;;;;;;17.68;46.62;100316.06;5098381;28;1249;-54
2023/08/03 09:25:13;;;;;;;;;;;;;;;17.78;46.20;100322.28;5097638;28;1213;-55
2023/08/03 09:27:47;;;;;;;;;;;;;;;17.65;46.53;100316.66;5098955;28;1252;-52
2023/08/03 09:30:12;;;;;;;;;;;;;;;17.72;46.41;100311.63;5098131;28;1070;-54
2023/08/03 09:32:38;;;;;;;;;;;;;;;17.66;46.70;100313.59;5097898;28;1058;-52
2023/08/03 09:35:15;;;;;;;;;;;;;;;17.79;46.37;100318.41;5079682;28;1968;-55
2023/08/03 09:37:40;;;;;;;;;;;;;;;17.70;46.46;100311.91;5098637;28;1272;-52
2023/08/03 09:40:07;;;;;;;;;;;;;;;17.72;46.59;100319.88;5098486;28;1393;-54
2023/08/03 09:42:32;;;;;;;;;;;;;;;17.73;46.46;100325.06;5098314;28;1378;-53
2023/08/03 09:45:03;;;;;;;;;;;;;;;17.72;46.40;100322.63;5091546;28;1872;-54
2023/08/03 09:47:29;;;;;;;;;;;;;;;17.62;46.64;100313.34;5093314;28;1229;-55
2023/08/03 09:49:56;;;;;;;;;;;;;;;17.78;46.42;100327.78;5098380;28;1244;-54
2023/08/03 09:52:24;;;;;;;;;;;;;;;17.80;46.37;100319.22;5098372;28;1291;-55
2023/08/03 09:54:55;;;;;;;;;;;;;;;17.75;46.44;100322.03;5097885;28;1913;-52
2023/08/03 09:57:22;;;;;;;;;;;;;;;17.80;46.54;100313.72;5078271;28;1134;-55
2023/08/03 09:59:48;;;;;;;;;;;;;;;17.76;46.63;100318.97;5096821;28;1463;-54
2023/08/03 10:02:14;;;;;;;;;;;;;;;17.75;46.61;100311.03;5077990;28;1260;-52
2023/08/03 10:04:40;;;;;;;;;;;;;;;17.85;46.41;100310.94;5096941;28;1276;-52
2023/08/03 10:07:06;;;;;;;;;;;;;;;17.87;46.73;100324.38;5078979;28;1039;-50
2023/08/03 10:09:37;;;;;;;;;;;;;;;17.92;46.55;100316.91;5077732;28;1039;-47
2023/08/03 10:12:03;;;;;;;;;;;;;;;17.83;46.58;100312.31;5097454;28;1034;-55
2023/08/03 10:14:30;;;;;;;;;;;;;;;17.79;46.78;100312.09;5077271;28;1910;-52
2023/08/03 10:16:58;;;;;;;;;;;;;;;17.75;46.77;100317.38;5080475;28;2094;-54
2023/08/03 10:19:23;;;;;;;;;;;;;;;17.87;46.35;100303.19;5083590;28;1103;-49
2023/08/03 10:21:49;;;;;;;;;;;;;;;17.84;46.53;100306.53;5077598;28;1686;-54
2023/08/03 10:24:15;;;;;;;;;;;;;;;17.88;46.59;100313.09;5082338;28;1118;-53
2023/08/03 10:26:41;;;;;;;;;;;;;;;17.85;46.54;100308.19;5097862;28;1070;-53
2023/08/03 10:29:06;;;;;;;;;;;;;;;17.88;46.58;100302.09;5096479;28;1090;-54
2023/08/03 10:31:32;;;;;;;;;;;;;;;17.89;46.43;100300.97;5093529;28;1050;-52
2023/08/03 10:33:58;;;;;;;;;;;;;;;17.81;46.62;100306.28;5086569;28;1917;-48
2023/08/03 10:36:29;;;;;;;;;;;;;;;17.88;46.50;100298.50;5097463;28;1122;-52
2023/08/03 10:39:01;;;;;;;;;;;;;;;17.85;46.59;100299.94;5095855;28;1182;-53
2023/08/03 10:41:27;;;;;;;;;;;;;;;17.91;46.46;100303.47;5089120;28;1206;-57
2023/08/03 10:44:05;;;;;;;;;;;;;;;17.85;46.57;100305.44;5089725;28;1213;-56
2023/08/03 10:46:33;;;;;;;;;;;;;;;17.84;46.48;100305.69;5086818;28;2082;-52
2023/08/03 10:48:59;;;;;;;;;;;;;;;17.84;46.65;100302.94;5096551;28;1121;-54
2023/08/03 10:51:24;;;;;;;;;;;;;;;17.92;46.16;100299.56;5095971;28;1130;-52
2023/08/03 10:53:50;;;;;;;;;;;;;;;17.86;46.24;100301.53;5096145;28;1972;-54
2023/08/03 10:56:15;;;;;;;;;;;;;;;17.85;46.60;100296.34;5095579;28;1157;-55
2023/08/03 10:58:42;;;;;;;;;;;;;;;17.88;46.30;100295.75;5097274;28;987;-54
2023/08/03 11:01:07;;;;;;;;;;;;;;;17.83;46.62;100295.81;5095528;28;1085;-54
2023/08/03 11:03:36;;;;;;;;;;;;;;;17.90;46.38;100291.59;5096571;28;1149;-54
2023/08/03 11:06:02;;;;;;;;;;;;;;;17.85;46.43;100299.94;5082866;28;1018;-56
2023/08/03 11:08:28;;;;;;;;;;;;;;;17.86;46.61;100303.47;5096086;28;1006;-55
2023/08/03 11:10:54;;;;;;;;;;;;;;;17.76;46.67;100302.47;5096257;28;1035;-55
2023/08/03 11:13:20;;;;;;;;;;;;;;;17.90;46.30;100297.09;5095540;28;1902;-52
2023/08/03 11:15:46;;;;;;;;;;;;;;;17.99;46.02;100280.78;5085913;28;1836;-52
2023/08/03 11:18:16;;;;;;;;;;;;;;;17.84;46.38;100286.44;5071018;28;1155;-48
2023/08/03 11:20:42;;;;;;;;;;;;;;;17.92;46.56;100272.91;5087127;28;1073;-52
2023/08/03 11:23:11;;;;;;;;;;;;;;;17.94;46.35;100289.13;5094686;28;1352;-50
2023/08/03 11:25:36;;;;;;;;;;;;;;;17.96;46.39;100297.88;5095338;28;998;-53
2023/08/03 11:28:02;;;;;;;;;;;;;;;17.89;46.29;100289.13;5095987;28;1319;-52
2023/08/03 11:30:27;;;;;;;;;;;;;;;17.88;46.36;100287.50;5095791;28;1070;-53
2023/08/03 11:32:57;;;;;;;;;;;;;;;17.90;46.34;100280.59;5087281;28;1011;-52
2023/08/03 11:35:23;;;;;;;;;;;;;;;17.95;46.39;100277.81;5075654;28;1977;-51
2023/08/03 11:37:48;;;;;;;;;;;;;;;17.90;46.36;100296.28;5090459;28;1085;-51
2023/08/03 11:40:14;;;;;;;;;;;;;;;17.87;46.43;100286.69;5094308;28;1062;-53
2023/08/03 11:42:39;;;;;;;;;;;;;;;17.90;46.50;100288.03;5091329;28;1149;-57
2023/08/03 11:45:05;;;;;;;;;;;;;;;17.94;46.29;100281.66;5089230;28;1751;-57
2023/08/03 11:47:47;;;;;;;;;;;;;;;17.94;46.10;100278.13;5097518;28;1097;-53
2023/08/03 11:50:12;;;;;;;;;;;;;;;17.91;46.28;100275.94;5095483;28;1167;-55
2023/08/03 11:52:38;;;;;;;;;;;;;;;17.98;46.10;100270.91;5076010;28;1010;-53
2023/08/03 11:55:04;;;;;;;;;;;;;;;17.85;46.54;100257.84;5087013;28;1909;-51
2023/08/03 12:00:14;;;;;;;;;;;;;;;17.99;46.52;100277.22;5079109;28;1030;-52
2023/08/03 12:02:40;;;;;;;;;;;;;;;18.01;46.37;100270.31;5088454;28;1142;-51
2023/08/03 12:05:06;;;;;;;;;;;;;;;18.03;46.30;100281.81;5089871;28;1147;-50
2023/08/03 12:07:31;;;;;;;;;;;;;;;18.01;46.34;100281.31;5088744;28;1083;-47
2023/08/03 12:09:57;;;;;;;;;;;;;;;17.98;46.26;100279.16;5090051;28;857;-51
2023/08/03 12:12:23;;;;;;;;;;;;;;;17.99;46.36;100275.28;5095997;28;1018;-52
2023/08/03 12:14:48;;;;;;;;;;;;;;;17.97;46.41;100279.47;5093859;28;1897;-52
2023/08/03 12:17:15;;;;;;;;;;;;;;;18.05;46.35;100287.06;5095609;28;1019;-57
2023/08/03 12:19:40;;;;;;;;;;;;;;;17.95;46.11;100277.00;5095270;28;1102;-57
2023/08/03 12:22:06;;;;;;;;;;;;;;;17.88;46.42;100287.50;5082797;28;908;-54
2023/08/03 12:24:32;;;;;;;;;;;;;;;18.00;46.28;100279.66;5075202;28;1047;-55
2023/08/03 12:26:57;;;;;;;;;;;;;;;18.00;46.25;100284.38;5087761;28;1031;-56
2023/08/03 12:29:23;;;;;;;;;;;;;;;17.91;46.20;100278.72;5090109;28;1134;-56
2023/08/03 12:31:49;;;;;;;;;;;;;;;17.91;46.17;100292.47;5088123;28;1134;-57
2023/08/03 12:34:14;;;;;;;;;;;;;;;17.97;46.16;100274.75;5076265;28;1953;-56
2023/08/03 12:36:40;;;;;;;;;;;;;;;17.96;46.42;100273.13;5075211;28;1032;-55
2023/08/03 12:39:05;;;;;;;;;;;;;;;17.95;46.41;100277.00;5090622;28;1198;-57
2023/08/03 12:41:31;;;;;;;;;;;;;;;17.90;46.24;100275.09;5086825;28;990;-55
2023/08/03 12:43:57;;;;;;;;;;;;;;;18.01;46.10;100280.50;5088634;28;928;-57
2023/08/03 12:46:23;;;;;;;;;;;;;;;17.98;46.24;100276.41;5091331;28;1868;-57